Time;durP1;ratioP1;P1;durP2;ratioP2;P2;SDS_P1;SDS_P2;PMS_P1;PMS_P2;Temp;Humidity;BMP_temperature;BMP_pressure;BME280_temperature;BME280_humidity;BME280_pressure;Samples;Min_cycle;Max_cycle;Signal;HPM_P1;HPM_P2
2021/11/25 00:01:24;;;;;;;49.80;34.30;;;9.80;98.90;;;;;;5066791;28;20439;-70
2021/11/25 00:03:50;;;;;;;50.88;34.40;;;9.80;99.00;;;;;;5067959;28;20836;-71
2021/11/25 00:06:16;;;;;;;51.50;35.30;;;9.80;98.90;;;;;;5101963;28;20415;-70
2021/11/25 00:08:42;;;;;;;48.33;34.17;;;9.80;98.90;;;;;;5101873;28;20419;-70
2021/11/25 00:11:09;;;;;;;54.17;35.60;;;9.80;99.10;;;;;;5104120;28;20420;-71
2021/11/25 00:13:34;;;;;;;55.50;36.95;;;9.80;99.10;;;;;;5100059;28;20422;-70
2021/11/25 00:16:01;;;;;;;51.57;35.63;;;9.80;99.20;;;;;;5104018;28;20931;-71
2021/11/25 00:18:27;;;;;;;53.38;35.22;;;9.80;99.10;;;;;;5102922;28;20430;-71
2021/11/25 00:20:53;;;;;;;50.67;35.07;;;9.80;99.20;;;;;;5097111;28;20392;-71
2021/11/25 00:23:19;;;;;;;52.67;35.47;;;9.80;99.00;;;;;;5097413;28;20420;-70
2021/11/25 00:25:44;;;;;;;53.85;36.15;;;9.80;99.00;;;;;;5073543;28;20410;-71
2021/11/25 00:28:10;;;;;;;54.37;35.97;;;9.80;99.00;;;;;;5080004;28;20412;-71
2021/11/25 00:30:36;;;;;;;52.70;35.67;;;9.80;99.00;;;;;;5075085;28;20496;-71
2021/11/25 00:33:02;;;;;;;54.93;36.40;;;9.80;98.90;;;;;;5102623;28;20420;-71
2021/11/25 00:35:27;;;;;;;56.05;36.65;;;9.80;98.80;;;;;;5085942;28;20408;-71
2021/11/25 00:37:53;;;;;;;54.97;36.77;;;9.70;98.90;;;;;;5099626;28;20444;-70
2021/11/25 00:40:20;;;;;;;58.53;38.38;;;9.80;98.90;;;;;;5101798;28;20900;-70
2021/11/25 00:42:46;;;;;;;54.45;36.40;;;9.80;99.10;;;;;;5101318;28;20420;-70
2021/11/25 00:45:13;;;;;;;56.03;37.22;;;9.80;99.10;;;;;;5103169;28;20442;-71
2021/11/25 00:47:40;;;;;;;55.67;37.13;;;9.80;99.00;;;;;;5101524;28;20412;-70
2021/11/25 00:50:08;;;;;;;59.30;36.87;;;9.80;98.90;;;;;;5102950;28;20400;-70
2021/11/25 00:52:34;;;;;;;55.93;36.97;;;9.80;98.80;;;;;;5079115;28;20543;-70
2021/11/25 00:54:59;;;;;;;55.90;36.80;;;9.80;98.70;;;;;;5099912;28;20489;-70
2021/11/25 00:57:25;;;;;;;56.70;37.47;;;9.80;98.70;;;;;;5102029;28;20403;-71
2021/11/25 00:59:51;;;;;;;56.25;37.00;;;9.80;98.60;;;;;;5101080;28;20450;-70
2021/11/25 01:02:19;;;;;;;58.22;38.42;;;9.80;98.50;;;;;;5101830;28;20786;-71
2021/11/25 01:04:44;;;;;;;58.92;37.95;;;9.80;98.70;;;;;;5100723;28;22890;-71
2021/11/25 01:07:10;;;;;;;59.40;38.70;;;9.80;98.80;;;;;;5084430;28;20460;-70
2021/11/25 01:09:36;;;;;;;60.10;38.03;;;9.80;98.90;;;;;;5097629;28;20512;-70
2021/11/25 01:12:02;;;;;;;64.43;38.60;;;9.80;98.90;;;;;;5099354;28;21364;-71
2021/11/25 01:14:34;;;;;;;60.72;38.88;;;9.80;98.90;;;;;;5077628;28;20813;-72
2021/11/25 01:17:01;;;;;;;64.97;39.92;;;9.70;98.90;;;;;;5103483;28;21419;-69
2021/11/25 01:19:27;;;;;;;66.85;40.85;;;9.70;99.10;;;;;;5102109;28;20504;-70
2021/11/25 01:21:53;;;;;;;65.75;40.03;;;9.70;99.10;;;;;;5098773;28;20525;-70
2021/11/25 01:24:19;;;;;;;68.53;41.77;;;9.70;99.40;;;;;;5099800;28;21256;-70
2021/11/25 01:26:45;;;;;;;69.30;41.25;;;9.60;99.50;;;;;;5096574;28;20400;-70
2021/11/25 01:29:11;;;;;;;64.25;39.92;;;9.60;99.90;;;;;;5100269;28;20969;-70
2021/11/25 01:31:38;;;;;;;67.13;41.47;;;9.50;99.90;;;;;;5099667;28;20400;-70
2021/11/25 01:34:04;;;;;;;71.43;41.00;;;9.50;99.90;;;;;;5103557;28;20897;-69
2021/11/25 01:36:30;;;;;;;66.95;41.25;;;9.50;99.90;;;;;;5095160;28;20443;-69
2021/11/25 01:38:55;;;;;;;69.67;41.40;;;9.50;99.90;;;;;;5083763;28;20433;-70
2021/11/25 01:41:21;;;;;;;70.20;41.63;;;9.50;99.90;;;;;;5073959;28;20408;-69
2021/11/25 01:43:47;;;;;;;68.45;41.28;;;9.50;99.90;;;;;;5081884;28;20574;-69
2021/11/25 01:46:15;;;;;;;67.13;40.10;;;9.40;99.90;;;;;;5073024;28;20405;-69
2021/11/25 01:48:42;;;;;;;67.82;41.10;;;9.40;99.90;;;;;;5074043;28;20409;-69
2021/11/25 01:51:08;;;;;;;73.00;41.83;;;9.50;99.90;;;;;;5075501;28;20486;-69
2021/11/25 01:53:35;;;;;;;73.60;41.50;;;9.40;99.90;;;;;;5080058;28;20430;-69
2021/11/25 01:56:01;;;;;;;76.25;42.42;;;9.40;99.90;;;;;;5081655;28;20902;-69
2021/11/25 01:58:26;;;;;;;77.10;43.60;;;9.40;99.90;;;;;;5074789;28;20453;-68
2021/11/25 02:00:54;;;;;;;78.68;44.83;;;9.40;99.90;;;;;;5077917;28;20414;-69
2021/11/25 02:03:21;;;;;;;76.80;40.05;;;9.30;99.90;;;;;;5075802;28;20182;-68
2021/11/25 02:05:47;;;;;;;83.70;40.00;;;8.90;99.90;;;;;;5077285;28;20182;-68
2021/11/25 02:08:12;;;;;;;90.57;47.42;;;8.60;99.90;;;;;;5079131;28;20417;-68
2021/11/25 02:10:42;;;;;;;86.28;41.70;;;8.70;99.90;;;;;;5075772;28;20239;-69
2021/11/25 02:13:07;;;;;;;;;;;8.50;99.90;;;;;;5081653;28;20081;-69
2021/11/25 02:15:35;;;;;;;82.45;38.10;;;8.20;99.90;;;;;;5082938;28;20196;-68
2021/11/25 02:18:06;;;;;;;85.28;38.92;;;8.00;99.90;;;;;;5084075;28;20216;-69
2021/11/25 02:20:40;;;;;;;83.97;41.08;;;7.90;99.90;;;;;;5079678;28;20302;-68
2021/11/25 02:23:08;;;;;;;79.60;38.00;;;7.80;99.90;;;;;;5085971;28;25060;-69
2021/11/25 02:25:34;;;;;;;87.82;40.33;;;7.70;99.90;;;;;;5084711;28;20182;-69
2021/11/25 02:28:01;;;;;;;87.38;41.38;;;7.70;99.90;;;;;;5083972;28;20185;-69
2021/11/25 02:30:26;;;;;;;91.78;42.03;;;7.70;99.90;;;;;;5087763;28;20186;-69
2021/11/25 02:32:53;;;;;;;89.97;41.72;;;7.60;99.90;;;;;;5086365;28;20197;-68
2021/11/25 02:35:23;;;;;;;86.32;39.78;;;7.60;99.90;;;;;;5087665;28;20669;-70
2021/11/25 02:37:51;;;;;;;87.88;39.83;;;7.50;99.90;;;;;;5084392;28;20189;-69
2021/11/25 02:40:27;;;;;;;90.03;41.53;;;7.50;99.90;;;;;;5080051;28;20185;-69
2021/11/25 02:43:00;;;;;;;100.30;41.05;;;7.40;99.90;;;;;;5095183;28;20364;-70
2021/11/25 02:45:27;;;;;;;92.03;42.92;;;7.40;99.90;;;;;;5107089;28;20188;-69
2021/11/25 02:47:53;;;;;;;96.60;43.85;;;7.40;99.90;;;;;;5107747;28;20548;-70
2021/11/25 02:50:21;;;;;;;92.05;42.45;;;7.40;99.90;;;;;;5090518;28;20201;-69
2021/11/25 02:52:47;;;;;;;92.90;43.03;;;7.40;99.90;;;;;;5082049;28;20177;-69
2021/11/25 02:55:14;;;;;;;98.15;43.22;;;7.40;99.90;;;;;;5106099;28;20193;-69
2021/11/25 02:57:41;;;;;;;103.65;44.72;;;7.40;99.90;;;;;;5102305;28;20185;-70
2021/11/25 03:00:14;;;;;;;101.78;44.05;;;7.40;99.90;;;;;;5107385;28;20228;-69
2021/11/25 03:02:40;;;;;;;102.63;43.95;;;7.40;99.90;;;;;;5107243;28;20828;-70
2021/11/25 03:05:08;;;;;;;95.32;42.83;;;7.40;99.90;;;;;;5089062;28;20195;-68
2021/11/25 03:07:34;;;;;;;101.80;44.58;;;7.30;99.90;;;;;;5103360;28;20189;-68
2021/11/25 03:10:00;;;;;;;104.15;44.47;;;7.40;99.90;;;;;;5099468;28;20677;-68
2021/11/25 03:12:26;;;;;;;103.97;45.90;;;7.30;99.90;;;;;;5099514;28;20193;-69
2021/11/25 03:14:52;;;;;;;96.85;43.08;;;7.40;99.90;;;;;;5086132;28;20182;-69
2021/11/25 03:17:17;;;;;;;98.30;43.63;;;7.30;99.90;;;;;;5081351;28;20186;-68
2021/11/25 03:19:43;;;;;;;107.95;46.08;;;7.30;99.90;;;;;;5078839;28;20209;-68
2021/11/25 03:22:09;;;;;;;110.65;44.88;;;7.30;99.90;;;;;;5101231;28;20672;-68
2021/11/25 03:24:34;;;;;;;99.93;44.45;;;7.30;99.90;;;;;;5101192;28;20272;-68
2021/11/25 03:27:01;;;;;;;101.60;43.13;;;7.30;99.90;;;;;;5106130;28;20189;-68
2021/11/25 03:29:27;;;;;;;106.38;44.33;;;7.30;99.90;;;;;;5081442;28;20188;-69
2021/11/25 03:31:52;;;;;;;101.95;43.38;;;7.20;99.90;;;;;;5101929;28;20854;-69
2021/11/25 03:34:18;;;;;;;110.15;46.42;;;7.20;99.90;;;;;;5093596;28;20190;-69
2021/11/25 03:36:44;;;;;;;110.95;46.50;;;7.10;99.90;;;;;;5077702;28;20243;-68
2021/11/25 03:39:09;;;;;;;109.85;44.50;;;7.20;99.90;;;;;;5107700;28;20205;-69
2021/11/25 03:41:36;;;;;;;110.15;45.50;;;7.10;99.90;;;;;;5081379;28;20264;-68
2021/11/25 03:44:02;;;;;;;111.65;46.13;;;7.10;99.90;;;;;;5106303;28;20229;-68
2021/11/25 03:46:30;;;;;;;112.57;46.03;;;7.10;99.90;;;;;;5105342;28;20608;-68
2021/11/25 03:48:56;;;;;;;114.15;46.22;;;7.10;99.90;;;;;;5097435;28;20194;-69
2021/11/25 03:51:21;;;;;;;114.70;46.28;;;7.10;99.90;;;;;;5094533;28;20242;-70
2021/11/25 03:53:48;;;;;;;110.35;45.78;;;7.10;99.90;;;;;;5092741;28;20186;-71
2021/11/25 03:56:15;;;;;;;110.00;46.38;;;7.20;99.90;;;;;;5074363;28;20189;-69
2021/11/25 03:58:41;;;;;;;111.78;46.33;;;7.10;99.90;;;;;;5081950;28;20205;-70
2021/11/25 04:01:08;;;;;;;114.45;47.75;;;7.20;99.90;;;;;;5099452;28;20189;-69
2021/11/25 04:03:34;;;;;;;116.30;47.45;;;7.20;99.90;;;;;;5103370;28;20296;-69
2021/11/25 04:06:00;;;;;;;115.28;47.05;;;7.20;99.90;;;;;;5093598;28;20709;-69
2021/11/25 04:08:25;;;;;;;108.22;45.58;;;7.30;99.90;;;;;;5080385;28;20205;-69
2021/11/25 04:10:51;;;;;;;113.40;47.08;;;7.30;99.90;;;;;;5099867;28;20212;-70
2021/11/25 04:13:17;;;;;;;113.40;46.63;;;7.30;99.90;;;;;;5097407;28;20212;-70
2021/11/25 04:15:42;;;;;;;112.53;46.97;;;7.20;99.90;;;;;;5084938;28;20185;-70
2021/11/25 04:18:08;;;;;;;122.55;47.75;;;7.20;99.90;;;;;;5100198;28;20714;-69
2021/11/25 04:20:35;;;;;;;117.75;47.47;;;7.20;99.90;;;;;;5100815;28;20514;-69
2021/11/25 04:23:02;;;;;;;128.73;48.65;;;7.20;99.90;;;;;;5099859;28;20280;-69
2021/11/25 04:25:28;;;;;;;117.82;47.47;;;7.20;99.90;;;;;;5104545;28;20268;-69
2021/11/25 04:27:53;;;;;;;124.90;48.65;;;7.20;99.90;;;;;;5082577;28;20272;-70
2021/11/25 04:35:35;;;;;;;122.07;48.22;;;7.20;99.90;;;;;;5103519;28;20191;-69
2021/11/25 04:38:22;;;;;;;118.63;47.47;;;7.20;99.90;;;;;;5086741;28;20200;-69
2021/11/25 04:40:54;;;;;;;119.22;46.58;;;7.20;99.90;;;;;;5087329;28;20332;-70
2021/11/25 04:43:21;;;;;;;110.75;45.17;;;7.20;99.90;;;;;;5104957;28;20231;-69
2021/11/25 04:45:49;;;;;;;116.57;47.78;;;7.20;99.90;;;;;;5104437;28;20181;-69
2021/11/25 04:48:17;;;;;;;123.40;46.75;;;7.20;99.90;;;;;;5105441;28;20672;-69
2021/11/25 04:50:44;;;;;;;119.15;47.28;;;7.20;99.90;;;;;;5088536;28;20261;-69
2021/11/25 04:53:11;;;;;;;119.97;47.60;;;7.20;99.90;;;;;;5101775;28;20197;-69
2021/11/25 04:55:37;;;;;;;124.90;47.33;;;7.20;99.90;;;;;;5099764;28;20276;-69
2021/11/25 04:58:03;;;;;;;119.93;46.22;;;7.20;99.90;;;;;;5082920;28;20263;-69
2021/11/25 05:00:28;;;;;;;113.05;45.40;;;7.20;99.90;;;;;;5093977;28;20185;-69
2021/11/25 05:02:54;;;;;;;114.95;45.78;;;7.20;99.90;;;;;;5087009;28;20664;-69
2021/11/25 05:05:20;;;;;;;121.72;45.85;;;7.20;99.90;;;;;;5106113;28;20210;-69
2021/11/25 05:07:46;;;;;;;112.32;46.80;;;7.10;99.90;;;;;;5097346;28;20286;-70
2021/11/25 05:10:12;;;;;;;132.52;47.67;;;7.20;99.90;;;;;;5101532;28;20244;-70
2021/11/25 05:12:38;;;;;;;114.22;45.22;;;7.20;99.90;;;;;;5102890;28;20208;-70
2021/11/25 05:15:10;;;;;;;114.50;45.92;;;7.10;99.90;;;;;;5097410;28;20268;-70
2021/11/25 05:17:36;;;;;;;142.65;57.15;;;7.20;99.90;;;;;;5099260;28;20745;-68
2021/11/25 05:20:04;;;;;;;133.93;57.42;;;7.60;99.90;;;;;;5098297;28;20422;-69
2021/11/25 05:22:29;;;;;;;131.48;56.95;;;7.90;99.90;;;;;;5097627;28;20416;-69
2021/11/25 05:24:55;;;;;;;134.07;57.42;;;8.10;99.90;;;;;;5104484;28;20404;-69
2021/11/25 05:27:21;;;;;;;126.53;55.00;;;8.30;99.90;;;;;;5102224;28;20553;-69
2021/11/25 05:29:47;;;;;;;132.13;56.20;;;8.30;99.90;;;;;;5097680;28;20780;-69
2021/11/25 05:32:14;;;;;;;131.80;55.27;;;8.40;99.90;;;;;;5082261;28;20450;-69
2021/11/25 05:34:40;;;;;;;125.30;54.35;;;8.50;99.90;;;;;;5085483;28;20400;-69
2021/11/25 05:37:06;;;;;;;124.07;54.50;;;8.60;99.90;;;;;;5097528;28;20952;-69
2021/11/25 05:39:31;;;;;;;117.43;51.60;;;8.60;99.90;;;;;;5081341;28;20410;-69
2021/11/25 05:41:57;;;;;;;111.73;51.60;;;8.60;99.90;;;;;;5094838;28;21056;-69
2021/11/25 05:44:23;;;;;;;116.50;51.35;;;8.70;99.90;;;;;;5098473;28;20477;-69
2021/11/25 05:46:48;;;;;;;109.17;50.47;;;8.70;99.90;;;;;;5099468;28;20439;-69
2021/11/25 05:49:14;;;;;;;108.43;48.70;;;8.80;99.90;;;;;;5096660;28;20914;-69
2021/11/25 05:51:40;;;;;;;107.43;49.50;;;8.80;99.90;;;;;;5101507;28;20569;-70
2021/11/25 05:54:05;;;;;;;110.30;48.90;;;8.90;99.90;;;;;;5105982;28;20427;-69
2021/11/25 05:56:31;;;;;;;112.78;49.15;;;8.90;99.90;;;;;;5104982;28;20484;-70
2021/11/25 05:58:57;;;;;;;115.00;50.03;;;8.90;99.90;;;;;;5082230;28;20419;-70
2021/11/25 06:01:26;;;;;;;107.53;48.83;;;8.90;99.90;;;;;;5103017;28;20472;-69
2021/11/25 06:03:53;;;;;;;111.82;48.60;;;8.90;99.90;;;;;;5106432;28;20404;-69
2021/11/25 06:06:20;;;;;;;103.38;46.47;;;9.00;99.90;;;;;;5085476;28;20411;-69
2021/11/25 06:08:47;;;;;;;98.85;46.40;;;9.00;99.90;;;;;;5101479;28;20895;-70
2021/11/25 06:11:12;;;;;;;101.88;46.45;;;9.10;99.90;;;;;;5105118;28;20419;-69
2021/11/25 06:13:38;;;;;;;100.25;45.10;;;9.10;99.90;;;;;;5087521;28;20404;-70
2021/11/25 06:16:05;;;;;;;86.43;39.00;;;9.20;99.90;;;;;;5104923;28;20280;-70
2021/11/25 06:18:30;;;;;;;95.45;38.55;;;8.80;99.90;;;;;;5106190;28;20813;-70
2021/11/25 06:20:57;;;;;;;79.63;34.35;;;8.60;99.90;;;;;;5082553;28;20185;-70
2021/11/25 06:23:22;;;;;;;86.20;34.60;;;8.40;99.90;;;;;;5106634;28;20188;-70
2021/11/25 06:25:48;;;;;;;79.43;33.83;;;8.30;99.90;;;;;;5104359;28;20611;-70
2021/11/25 06:28:14;;;;;;;77.90;32.90;;;8.20;99.90;;;;;;5106245;28;20186;-69
2021/11/25 06:30:40;;;;;;;76.00;31.45;;;8.10;99.90;;;;;;5104891;28;20220;-67
2021/11/25 06:33:05;;;;;;;64.05;28.75;;;8.10;99.90;;;;;;5103537;28;20220;-69
2021/11/25 06:35:31;;;;;;;75.95;28.17;;;8.10;99.90;;;;;;5088488;28;20657;-69
2021/11/25 06:37:57;;;;;;;65.57;26.95;;;8.00;99.90;;;;;;5109200;28;20169;-70
2021/11/25 06:40:27;;;;;;;60.05;27.17;;;8.00;99.90;;;;;;5109314;28;20196;-70
2021/11/25 06:42:55;;;;;;;54.70;21.98;;;8.00;99.90;;;;;;5091560;28;20892;-69
2021/11/25 06:45:21;;;;;;;53.85;23.52;;;8.00;99.90;;;;;;5109066;28;21040;-69
2021/11/25 06:47:47;;;;;;;57.85;20.35;;;8.00;99.90;;;;;;5108321;28;20559;-68
2021/11/25 06:50:15;;;;;;;39.38;18.65;;;8.10;99.90;;;;;;5091788;28;20543;-70
2021/11/25 06:52:40;;;;;;;26.95;14.82;;;8.10;99.90;;;;;;5105589;28;20231;-70
2021/11/25 06:55:08;;;;;;;27.75;13.07;;;8.10;99.90;;;;;;5107133;28;20173;-69
2021/11/25 06:57:35;;;;;;;25.08;11.20;;;8.10;99.90;;;;;;5105200;28;20189;-70
2021/11/25 07:00:04;;;;;;;18.60;10.98;;;8.20;99.90;;;;;;5102190;28;20263;-70
2021/11/25 07:02:30;;;;;;;15.82;10.23;;;8.20;99.90;;;;;;5109367;28;20184;-70
2021/11/25 07:04:57;;;;;;;16.40;9.35;;;8.20;99.90;;;;;;5105376;28;20947;-70
2021/11/25 07:07:22;;;;;;;17.25;9.73;;;8.20;99.90;;;;;;5106927;28;20189;-70
2021/11/25 07:09:48;;;;;;;18.15;10.40;;;8.30;99.90;;;;;;5108973;28;20181;-71
2021/11/25 07:12:14;;;;;;;16.70;9.68;;;8.20;99.90;;;;;;5100780;28;20645;-70
2021/11/25 07:14:40;;;;;;;18.42;8.95;;;8.30;99.90;;;;;;5107085;28;20196;-70
2021/11/25 07:17:05;;;;;;;13.55;6.47;;;8.30;99.90;;;;;;5108611;28;20189;-69
2021/11/25 07:19:32;;;;;;;19.92;5.40;;;8.40;99.90;;;;;;5109392;28;20197;-70
2021/11/25 07:21:58;;;;;;;11.98;4.63;;;8.40;99.90;;;;;;5104507;28;20197;-70
2021/11/25 07:24:24;;;;;;;12.35;4.70;;;8.40;99.90;;;;;;5107215;28;21013;-69
2021/11/25 07:26:49;;;;;;;15.32;3.90;;;8.40;99.90;;;;;;5105032;28;20231;-70
2021/11/25 07:29:17;;;;;;;14.48;3.38;;;8.40;99.90;;;;;;5109315;28;20196;-70
2021/11/25 07:31:42;;;;;;;19.70;3.67;;;8.30;99.90;;;;;;5101986;28;20661;-71
2021/11/25 07:34:08;;;;;;;10.82;2.45;;;8.30;99.90;;;;;;5107801;28;20192;-69
2021/11/25 07:36:33;;;;;;;11.00;2.38;;;8.40;99.90;;;;;;5105588;28;20178;-70
2021/11/25 07:38:59;;;;;;;7.80;1.98;;;8.40;99.90;;;;;;5106748;28;20244;-69
2021/11/25 07:41:25;;;;;;;9.52;2.13;;;8.30;99.90;;;;;;5089431;28;20177;-69
2021/11/25 07:43:51;;;;;;;13.20;1.73;;;8.40;99.90;;;;;;5105579;28;20242;-71
2021/11/25 07:46:17;;;;;;;8.55;1.95;;;8.40;99.90;;;;;;5107986;28;20289;-70
2021/11/25 07:48:42;;;;;;;11.57;2.08;;;8.40;99.90;;;;;;5106272;28;20262;-70
2021/11/25 07:51:08;;;;;;;14.45;2.38;;;8.40;99.90;;;;;;5089149;28;20193;-70
2021/11/25 07:53:35;;;;;;;28.75;9.60;;;8.40;99.90;;;;;;5104791;28;20199;-71
2021/11/25 07:56:01;;;;;;;14.13;2.60;;;8.40;99.90;;;;;;5104630;28;20621;-71
2021/11/25 07:58:28;;;;;;;11.88;2.10;;;8.50;99.90;;;;;;5106260;28;20292;-71
2021/11/25 08:00:54;;;;;;;17.80;2.58;;;8.40;99.90;;;;;;5098063;28;20892;-70
2021/11/25 08:03:20;;;;;;;9.55;1.73;;;8.50;99.90;;;;;;5107713;28;20185;-69
2021/11/25 08:05:46;;;;;;;14.25;2.47;;;8.50;99.90;;;;;;5085321;28;20657;-70
2021/11/25 08:08:11;;;;;;;14.35;1.92;;;8.50;99.90;;;;;;5104216;28;20200;-68
2021/11/25 08:10:37;;;;;;;11.90;2.20;;;8.50;99.90;;;;;;5105371;28;20192;-70
2021/11/25 08:13:04;;;;;;;12.18;2.45;;;8.60;99.90;;;;;;5103803;28;20185;-71
2021/11/25 08:15:31;;;;;;;19.48;3.00;;;8.60;99.90;;;;;;5103115;28;21010;-71
2021/11/25 08:17:57;;;;;;;17.23;2.92;;;8.60;99.90;;;;;;5103345;28;20184;-69
2021/11/25 08:20:23;;;;;;;17.42;3.03;;;8.60;99.90;;;;;;5106450;28;20201;-71
2021/11/25 08:22:49;;;;;;;13.40;2.95;;;8.60;99.90;;;;;;5105796;28;20385;-70
2021/11/25 08:25:15;;;;;;;23.83;3.08;;;8.60;99.90;;;;;;5107655;28;20184;-71
2021/11/25 08:27:41;;;;;;;17.67;2.90;;;8.60;99.90;;;;;;5103171;28;20184;-67
2021/11/25 08:30:11;;;;;;;20.60;4.60;;;8.60;99.90;;;;;;5103293;28;20185;-71
2021/11/25 08:32:37;;;;;;;18.98;6.15;;;8.70;99.90;;;;;;5099813;28;20185;-71
2021/11/25 08:35:04;;;;;;;18.42;3.03;;;8.70;99.90;;;;;;5089678;28;20252;-71
2021/11/25 08:37:30;;;;;;;19.75;2.72;;;8.70;99.90;;;;;;5106649;28;20648;-73
2021/11/25 08:39:56;;;;;;;12.77;2.28;;;8.70;99.90;;;;;;5089372;28;20212;-70
2021/11/25 08:42:21;;;;;;;17.98;2.17;;;8.80;99.90;;;;;;5105411;28;20250;-71
2021/11/25 08:44:47;;;;;;;16.15;2.33;;;8.80;99.90;;;;;;5106053;28;20178;-71
2021/11/25 08:47:12;;;;;;;15.38;2.38;;;8.90;99.90;;;;;;5105399;28;20177;-70
2021/11/25 08:49:38;;;;;;;11.93;2.55;;;8.90;99.90;;;;;;5105186;28;20189;-70
2021/11/25 08:52:05;;;;;;;13.75;2.45;;;9.00;99.90;;;;;;5103981;28;20205;-70
2021/11/25 08:54:31;;;;;;;16.33;1.98;;;9.10;99.90;;;;;;5104672;28;20185;-70
2021/11/25 08:56:57;;;;;;;12.00;2.47;;;9.10;99.90;;;;;;5106694;28;20196;-70
2021/11/25 08:59:22;;;;;;;19.88;2.08;;;9.10;99.90;;;;;;5105888;28;20201;-70
2021/11/25 09:01:48;;;;;;;19.35;2.47;;;9.10;99.90;;;;;;5104495;28;20196;-70
2021/11/25 09:04:14;;;;;;;15.95;2.20;;;9.10;99.90;;;;;;5100634;28;20415;-69
2021/11/25 09:06:40;;;;;;;16.03;2.33;;;9.60;99.90;;;;;;5098638;28;21146;-70
2021/11/25 09:09:06;;;;;;;13.52;2.40;;;9.90;99.90;;;;;;5104759;28;20392;-70
2021/11/25 09:11:36;;;;;;;15.23;3.00;;;10.10;99.90;;;;;;5100906;28;20445;-70
2021/11/25 09:14:03;;;;;;;19.60;2.47;;;10.30;99.90;;;;;;5104337;28;20438;-70
2021/11/25 09:16:29;;;;;;;16.70;2.30;;;10.30;99.90;;;;;;5103537;28;20412;-70
2021/11/25 09:18:55;;;;;;;14.35;2.25;;;10.50;99.90;;;;;;5100598;28;20424;-70
2021/11/25 09:21:22;;;;;;;16.90;2.40;;;10.60;99.90;;;;;;5096433;28;20404;-70
2021/11/25 09:23:48;;;;;;;17.63;2.60;;;10.70;99.90;;;;;;5096034;28;20495;-70
2021/11/25 09:26:16;;;;;;;14.88;2.33;;;10.90;99.90;;;;;;5092451;28;20285;-72
2021/11/25 09:28:42;;;;;;;13.05;2.08;;;10.60;99.90;;;;;;5102021;28;20242;-71
2021/11/25 09:31:13;;;;;;;8.00;2.13;;;10.40;99.90;;;;;;5103619;28;20736;-72
2021/11/25 09:33:39;;;;;;;11.00;2.00;;;10.30;99.90;;;;;;5098945;28;20197;-71
2021/11/25 09:36:05;;;;;;;15.63;1.83;;;10.30;99.90;;;;;;5104754;28;20552;-70
2021/11/25 09:38:31;;;;;;;;;;;10.40;99.90;;;;;;5101410;28;20042;-71
2021/11/25 09:40:57;;;;;;;;;;;10.70;99.90;;;;;;5101872;28;19916;-70
2021/11/25 09:43:25;;;;;;;;;;;11.30;99.90;;;;;;5061740;28;1024105;-71
2021/11/25 09:45:50;;;;;;;;;;;11.60;99.90;;;;;;5103252;28;19935;-71
2021/11/25 09:48:16;;;;;;;;;;;11.70;99.90;;;;;;5084077;28;19912;-71
2021/11/25 09:50:46;;;;;;;;;;;11.70;99.90;;;;;;5086425;28;19998;-70
2021/11/25 09:53:13;;;;;;;;;;;11.60;99.90;;;;;;5104002;28;19961;-68
2021/11/25 09:55:42;;;;;;;;;;;11.60;99.90;;;;;;5104981;28;19908;-69
2021/11/25 09:58:12;;;;;;;;;;;11.60;99.90;;;;;;5100140;28;19976;-72
2021/11/25 10:00:38;;;;;;;;;;;11.50;99.90;;;;;;5103877;28;19994;-69
2021/11/25 10:03:03;;;;;;;;;;;11.40;99.90;;;;;;5108804;28;19991;-68
2021/11/25 10:05:29;;;;;;;;;;;11.30;99.90;;;;;;5086662;28;19923;-69
2021/11/25 10:07:54;;;;;;;14.88;2.90;;;11.20;99.90;;;;;;5099602;28;20440;-68
2021/11/25 10:10:30;;;;;;;14.48;2.50;;;11.60;99.90;;;;;;5100261;28;20958;-69
2021/11/25 10:13:14;;;;;;;17.52;2.83;;;11.50;99.90;;;;;;5103061;28;20189;-68
2021/11/25 10:15:42;;;;;;;11.07;2.65;;;11.20;99.90;;;;;;5084957;28;20185;-68
2021/11/25 10:18:14;;;;;;;10.68;2.20;;;11.10;99.90;;;;;;5101293;28;20715;-70
2021/11/25 10:20:45;;;;;;;12.93;1.90;;;11.00;99.90;;;;;;5101425;28;20200;-67
2021/11/25 10:23:19;;;;;;;12.85;2.22;;;10.90;99.90;;;;;;5082929;28;20191;-70
2021/11/25 10:26:05;;;;;;;13.77;1.90;;;10.80;99.90;;;;;;5086455;28;20218;-67
2021/11/25 10:28:48;;;;;;;12.13;1.80;;;10.80;99.90;;;;;;5098651;28;20257;-67
2021/11/25 10:31:36;;;;;;;9.88;1.73;;;10.80;99.90;;;;;;5100747;28;20205;-67
2021/11/25 10:34:20;;;;;;;10.82;1.88;;;10.80;99.90;;;;;;5102975;28;20254;-70
2021/11/25 10:42:00;;;;;;;14.02;1.90;;;10.90;99.90;;;;;;5105538;28;20272;-71
2021/11/25 10:44:33;;;;;;;9.32;1.60;;;10.90;99.60;;;;;;5090160;28;20220;-70
2021/11/25 10:47:10;;;;;;;9.10;1.75;;;11.00;99.60;;;;;;5107221;28;20185;-67
2021/11/25 10:49:56;;;;;;;12.90;1.50;;;11.10;99.30;;;;;;5088105;28;20653;-66
2021/11/25 10:52:44;;;;;;;9.65;1.52;;;11.20;99.10;;;;;;5105064;28;20249;-67
2021/11/25 10:55:15;;;;;;;10.88;1.23;;;11.20;98.80;;;;;;5108013;28;20339;-66
2021/11/25 10:57:48;;;;;;;9.43;1.27;;;11.20;98.90;;;;;;5106528;28;20193;-67
2021/11/25 11:00:22;;;;;;;7.32;1.40;;;11.20;98.40;;;;;;5103987;28;20692;-68
2021/11/25 11:03:02;;;;;;;8.98;1.30;;;11.20;98.20;;;;;;5102492;28;20196;-68
2021/11/25 11:05:27;;;;;;;13.13;1.80;;;11.30;98.00;;;;;;5107467;28;20185;-67
2021/11/25 11:08:04;;;;;;;12.45;1.35;;;11.30;97.90;;;;;;5105902;28;20263;-65
2021/11/25 11:10:29;;;;;;;11.68;1.63;;;11.30;97.70;;;;;;5106456;28;20188;-66
2021/11/25 11:13:22;;;;;;;12.65;1.48;;;11.30;97.50;;;;;;5086829;28;20235;-69
2021/11/25 11:15:58;;;;;;;12.10;1.48;;;11.30;97.30;;;;;;5108518;28;20214;-67
2021/11/25 11:18:43;;;;;;;10.95;2.00;;;11.20;97.20;;;;;;5080370;28;20294;-69
2021/11/25 11:21:34;;;;;;;11.80;2.08;;;11.30;97.20;;;;;;5106030;28;20605;-68
2021/11/25 11:24:21;;;;;;;15.52;1.52;;;11.30;97.00;;;;;;5107651;28;20242;-67
2021/11/25 11:26:53;;;;;;;9.43;1.77;;;11.40;97.00;;;;;;5103831;28;20637;-69
2021/11/25 11:29:24;;;;;;;14.05;2.50;;;11.50;96.80;;;;;;5079405;28;20197;-67
2021/11/25 11:31:52;;;;;;;10.88;1.80;;;11.50;96.50;;;;;;5104433;28;20276;-68
2021/11/25 11:34:19;;;;;;;8.77;1.52;;;11.60;96.40;;;;;;5107580;28;20544;-68
2021/11/25 11:36:52;;;;;;;10.20;1.92;;;11.70;96.20;;;;;;5086783;28;20189;-69
2021/11/25 11:39:25;;;;;;;10.88;1.60;;;11.70;96.10;;;;;;5089285;28;20236;-68
2021/11/25 11:41:57;;;;;;;9.65;1.45;;;11.70;95.90;;;;;;5103897;28;20589;-69
2021/11/25 11:44:24;;;;;;;13.70;1.30;;;11.70;95.70;;;;;;5103902;28;20665;-69
2021/11/25 11:46:54;;;;;;;13.05;1.60;;;11.70;95.50;;;;;;5104737;28;20222;-68
2021/11/25 11:49:24;;;;;;;10.55;1.67;;;11.60;95.30;;;;;;5103898;28;20198;-70
2021/11/25 11:52:23;;;;;;;15.30;2.40;;;11.60;95.10;;;;;;5104094;28;20711;-68
2021/11/25 11:54:56;;;;;;;10.05;1.77;;;11.60;94.80;;;;;;5059717;28;20665;-70
2021/11/25 11:57:27;;;;;;;11.93;2.25;;;11.60;94.80;;;;;;5099108;28;20522;-68
2021/11/25 11:59:54;;;;;;;13.65;1.73;;;11.60;94.80;;;;;;5106349;28;20216;-69
2021/11/25 12:02:41;;;;;;;6.15;1.60;;;11.60;94.70;;;;;;5100908;28;20905;-69
2021/11/25 12:05:08;;;;;;;8.18;1.13;;;11.50;94.70;;;;;;5105084;28;20193;-69
2021/11/25 12:07:33;;;;;;;11.55;1.60;;;11.40;94.80;;;;;;5104008;28;20189;-68
2021/11/25 12:09:59;;;;;;;5.45;1.30;;;11.30;94.80;;;;;;5107084;28;20184;-69
2021/11/25 12:12:25;;;;;;;7.35;2.03;;;11.20;94.80;;;;;;5067820;28;20242;-68
2021/11/25 12:14:55;;;;;;;8.38;1.70;;;11.20;94.80;;;;;;5105883;28;20185;-70
2021/11/25 12:17:27;;;;;;;9.93;1.50;;;11.20;94.90;;;;;;5102980;28;20254;-69
2021/11/25 12:19:53;;;;;;;10.20;1.30;;;11.20;95.10;;;;;;5085767;28;20599;-69
2021/11/25 12:22:20;;;;;;;5.85;1.40;;;11.30;95.10;;;;;;5101753;28;20182;-68
2021/11/25 12:24:55;;;;;;;11.57;2.10;;;11.30;95.10;;;;;;5104737;28;20700;-69
2021/11/25 12:27:35;;;;;;;9.70;1.80;;;11.30;94.90;;;;;;5101007;28;20217;-69
2021/11/25 12:30:14;;;;;;;9.35;1.80;;;11.50;95.10;;;;;;5100115;28;20181;-68
2021/11/25 12:32:51;;;;;;;11.82;2.03;;;11.80;95.40;;;;;;5096091;28;20201;-67
2021/11/25 12:35:25;;;;;;;14.35;1.60;;;12.20;95.30;;;;;;5104303;28;20184;-67
2021/11/25 12:37:58;;;;;;;;;;;12.60;95.20;;;;;;5083985;28;20738;-70
2021/11/25 12:40:23;;;;;;;;;;;13.00;95.50;;;;;;5107093;28;19916;-70
2021/11/25 12:42:56;;;;;;;;;;;13.20;95.50;;;;;;5105040;28;19941;-68
2021/11/25 12:45:22;;;;;;;;;;;13.40;95.20;;;;;;5098522;28;20014;-70
2021/11/25 12:47:48;;;;;;;7.20;1.02;;;13.20;94.80;;;;;;5103533;28;20353;-70
2021/11/25 12:50:21;;;;;;;6.43;1.10;;;13.00;94.70;;;;;;5101030;28;20199;-68
2021/11/25 12:52:47;;;;;;;9.18;1.60;;;12.80;94.50;;;;;;5095249;28;20405;-69
2021/11/25 12:55:14;;;;;;;9.07;1.40;;;13.30;92.20;;;;;;5078371;28;20428;-70